Time;durP1;ratioP1;P1;durP2;ratioP2;P2;SDS_P1;SDS_P2;PMS_P1;PMS_P2;Temp;Humidity;BMP_temperature;BMP_pressure;BME280_temperature;BME280_humidity;BME280_pressure;Samples;Min_cycle;Max_cycle;Signal;HPM_P1;HPM_P2
2021/06/05 00:00:57;;;;;;;60.45;45.30;;;17.50;99.10;;;;;;5152583;27;20541;-66
2021/06/05 00:03:24;;;;;;;61.67;47.30;;;17.40;99.40;;;;;;5160452;27;20470;-66
2021/06/05 00:05:53;;;;;;;58.50;45.17;;;17.40;99.20;;;;;;5153149;27;20129;-66
2021/06/05 00:08:20;;;;;;;60.00;44.92;;;17.30;99.70;;;;;;5147655;27;20129;-66
2021/06/05 00:10:50;;;;;;;59.47;45.78;;;17.30;99.60;;;;;;5153160;27;20059;-66
2021/06/05 00:13:24;;;;;;;66.40;48.60;;;17.30;99.40;;;;;;5158930;27;20050;-66
2021/06/05 00:15:51;;;;;;;64.75;46.90;;;17.30;99.40;;;;;;5154812;27;20047;-66
2021/06/05 00:18:17;;;;;;;59.55;45.40;;;17.20;99.40;;;;;;5163842;27;20045;-66
2021/06/05 00:20:43;;;;;;;61.42;46.75;;;17.20;99.40;;;;;;5151864;27;20107;-66
2021/06/05 00:23:13;;;;;;;66.40;48.00;;;17.30;99.40;;;;;;5168267;27;20446;-66
2021/06/05 00:25:40;;;;;;;63.30;45.92;;;17.20;99.50;;;;;;5159110;27;20105;-66
2021/06/05 00:28:06;;;;;;;56.63;43.17;;;17.20;99.40;;;;;;5161333;27;20111;-66
2021/06/05 00:30:33;;;;;;;60.55;45.47;;;17.10;99.70;;;;;;5166470;27;20133;-66
2021/06/05 00:32:59;;;;;;;62.42;46.33;;;17.00;99.80;;;;;;5157191;27;20106;-66
2021/06/05 00:35:26;;;;;;;67.47;48.20;;;17.00;99.90;;;;;;5163229;27;20083;-66
2021/06/05 00:37:52;;;;;;;60.55;43.95;;;17.00;99.70;;;;;;5155748;27;20465;-66
2021/06/05 00:40:20;;;;;;;61.40;42.67;;;16.90;99.90;;;;;;5163483;27;20103;-66
2021/06/05 00:42:46;;;;;;;62.28;45.97;;;16.90;99.90;;;;;;5158170;27;20042;-66
2021/06/05 00:45:14;;;;;;;63.42;48.10;;;16.90;99.80;;;;;;5159671;27;20035;-66
2021/06/05 00:47:40;;;;;;;60.65;44.17;;;16.90;99.80;;;;;;5154844;27;20493;-66
2021/06/05 00:50:09;;;;;;;67.80;46.25;;;16.90;99.70;;;;;;5159759;27;20026;-66
2021/06/05 00:52:35;;;;;;;66.03;45.60;;;16.90;99.90;;;;;;5165016;27;20041;-66
2021/06/05 00:55:03;;;;;;;64.72;46.65;;;16.80;99.90;;;;;;5162572;27;20039;-66
2021/06/05 00:57:29;;;;;;;69.18;46.63;;;16.70;99.90;;;;;;5154480;27;20345;-66
2021/06/05 00:59:55;;;;;;;66.70;45.38;;;16.70;99.90;;;;;;5159576;27;20107;-66
2021/06/05 01:02:21;;;;;;;66.13;45.85;;;16.60;99.90;;;;;;5158350;27;20030;-66
2021/06/05 01:04:47;;;;;;;66.40;45.35;;;16.60;99.90;;;;;;5160227;27;20026;-66
2021/06/05 01:07:20;;;;;;;61.50;43.53;;;16.60;99.90;;;;;;5158500;27;20558;-66
2021/06/05 01:09:58;;;;;;;66.45;44.35;;;16.60;99.90;;;;;;5165862;27;20057;-66
2021/06/05 01:12:39;;;;;;;61.63;43.20;;;16.60;99.90;;;;;;5158633;27;20034;-66
2021/06/05 01:15:26;;;;;;;63.75;42.47;;;16.60;99.90;;;;;;5156783;27;20053;-66
2021/06/05 01:17:57;;;;;;;62.45;44.78;;;16.60;99.90;;;;;;5157838;27;20166;-66
2021/06/05 01:20:36;;;;;;;61.75;44.00;;;16.60;99.90;;;;;;5161624;27;20054;-66
2021/06/05 01:23:29;;;;;;;62.38;45.63;;;16.60;99.90;;;;;;5155599;27;20039;-66
2021/06/05 01:26:12;;;;;;;65.47;43.88;;;16.50;99.90;;;;;;5163114;27;20095;-66
2021/06/05 01:28:54;;;;;;;67.07;46.28;;;16.60;99.90;;;;;;5158205;27;20099;-66
2021/06/05 01:31:26;;;;;;;66.82;46.03;;;16.60;99.90;;;;;;5160522;27;20045;-66
2021/06/05 01:33:54;;;;;;;71.30;48.45;;;16.60;99.90;;;;;;5156746;27;20038;-66
2021/06/05 01:36:22;;;;;;;67.53;45.92;;;16.60;99.90;;;;;;5166635;27;20041;-66
2021/06/05 01:38:57;;;;;;;77.10;49.55;;;16.60;99.90;;;;;;5159063;27;20050;-66
2021/06/05 01:41:26;;;;;;;66.30;45.28;;;16.60;99.90;;;;;;5160588;27;20061;-66
2021/06/05 01:43:53;;;;;;;69.65;44.55;;;16.60;99.90;;;;;;5157456;27;20326;-66
2021/06/05 01:46:22;;;;;;;74.63;49.20;;;16.60;99.90;;;;;;5160496;27;20047;-66
2021/06/05 01:48:48;;;;;;;75.90;48.80;;;16.60;99.90;;;;;;5156518;27;20094;-66
2021/06/05 01:51:18;;;;;;;76.28;47.10;;;16.50;99.90;;;;;;5157367;27;20477;-66
2021/06/05 01:54:01;;;;;;;77.57;50.67;;;16.50;99.90;;;;;;5164021;27;20490;-66
2021/06/05 01:56:43;;;;;;;76.18;48.08;;;16.50;99.90;;;;;;5157779;27;20575;-66
2021/06/05 01:59:14;;;;;;;72.50;48.25;;;16.50;99.90;;;;;;5164268;27;20027;-66
2021/06/05 02:01:41;;;;;;;80.07;48.75;;;16.40;99.90;;;;;;5155368;27;20482;-66
2021/06/05 02:04:08;;;;;;;78.20;48.03;;;16.40;99.90;;;;;;5159882;27;20092;-66
2021/06/05 02:06:34;;;;;;;76.45;47.25;;;16.40;99.90;;;;;;5161154;27;20041;-66
2021/06/05 02:09:02;;;;;;;86.75;51.65;;;16.40;99.90;;;;;;5162701;27;20486;-66
2021/06/05 02:11:29;;;;;;;78.93;48.22;;;16.40;99.90;;;;;;5153782;27;20542;-66
2021/06/05 02:14:03;;;;;;;81.78;49.78;;;16.40;99.90;;;;;;5167942;27;20061;-66
2021/06/05 02:16:37;;;;;;;80.68;45.97;;;16.40;99.90;;;;;;5153978;27;20045;-67
2021/06/05 02:19:10;;;;;;;85.55;48.20;;;16.30;99.90;;;;;;5167970;27;20049;-67
2021/06/05 02:21:41;;;;;;;86.47;50.08;;;16.30;99.90;;;;;;5158166;27;20060;-67
2021/06/05 02:24:10;;;;;;;96.28;51.55;;;16.30;99.90;;;;;;5159142;27;20149;-67
2021/06/05 02:26:39;;;;;;;87.15;49.78;;;16.20;99.90;;;;;;5153222;27;20121;-67
2021/06/05 02:29:08;;;;;;;87.25;48.63;;;16.20;99.90;;;;;;5163360;27;20030;-67
2021/06/05 02:31:36;;;;;;;84.47;49.22;;;16.20;99.90;;;;;;5151873;27;20070;-67
2021/06/05 02:34:03;;;;;;;88.63;50.35;;;16.20;99.90;;;;;;5160289;27;20495;-67
2021/06/05 02:36:29;;;;;;;79.72;49.53;;;16.20;99.90;;;;;;5154392;27;20034;-67
2021/06/05 02:38:55;;;;;;;77.15;45.38;;;16.20;99.90;;;;;;5166465;27;20121;-67
2021/06/05 02:41:23;;;;;;;67.45;42.25;;;16.20;99.90;;;;;;5159616;27;20053;-67
2021/06/05 02:43:54;;;;;;;66.20;42.30;;;16.30;99.90;;;;;;5161442;27;20123;-67
2021/06/05 02:46:24;;;;;;;65.63;43.97;;;16.20;99.90;;;;;;5151810;27;20718;-66
2021/06/05 02:48:56;;;;;;;68.80;44.13;;;16.20;99.90;;;;;;5156697;27;20481;-66
2021/06/05 02:51:26;;;;;;;63.25;41.45;;;16.20;99.90;;;;;;5152378;27;20039;-66
2021/06/05 02:53:52;;;;;;;58.08;40.03;;;16.20;99.90;;;;;;5157707;27;20039;-66
2021/06/05 02:56:19;;;;;;;61.03;40.90;;;16.20;99.90;;;;;;5163135;27;20375;-66
2021/06/05 02:58:45;;;;;;;57.25;40.17;;;16.20;99.90;;;;;;5153845;27;20038;-66
2021/06/05 03:01:12;;;;;;;55.80;40.33;;;16.10;99.90;;;;;;5162722;27;20054;-66
2021/06/05 03:03:38;;;;;;;57.97;41.40;;;16.10;99.90;;;;;;5152978;27;20091;-67
2021/06/05 03:06:05;;;;;;;59.45;41.70;;;16.10;99.90;;;;;;5142868;27;20043;-66
2021/06/05 03:08:33;;;;;;;59.35;42.63;;;16.10;99.90;;;;;;5151644;27;20050;-66
2021/06/05 03:11:00;;;;;;;63.45;42.30;;;16.10;99.90;;;;;;5158547;27;20060;-66
2021/06/05 03:13:26;;;;;;;64.25;41.67;;;16.20;99.90;;;;;;5152196;27;20410;-66
2021/06/05 03:15:53;;;;;;;59.45;41.20;;;16.10;99.90;;;;;;5159967;27;20046;-66
2021/06/05 03:18:22;;;;;;;58.80;40.75;;;16.10;99.90;;;;;;5157995;27;20533;-66
2021/06/05 03:20:49;;;;;;;56.35;39.97;;;16.10;99.90;;;;;;5165562;27;20034;-66
2021/06/05 03:23:20;;;;;;;53.95;38.83;;;16.00;99.90;;;;;;5152955;27;20437;-66
2021/06/05 03:25:46;;;;;;;56.47;40.22;;;16.00;99.90;;;;;;5166420;27;20034;-66
2021/06/05 03:28:13;;;;;;;56.17;39.00;;;15.90;99.90;;;;;;5151531;27;20087;-66
2021/06/05 03:30:40;;;;;;;57.38;40.65;;;15.90;99.90;;;;;;5163087;27;20045;-66
2021/06/05 03:33:07;;;;;;;58.78;40.20;;;15.90;99.90;;;;;;5151240;27;20126;-66
2021/06/05 03:35:33;;;;;;;61.28;40.78;;;15.80;99.90;;;;;;5157965;27;20042;-66
2021/06/05 03:38:00;;;;;;;55.38;37.67;;;15.80;99.90;;;;;;5158371;27;20051;-66
2021/06/05 03:40:30;;;;;;;53.78;37.95;;;15.80;99.90;;;;;;5155809;27;20046;-66
2021/06/05 03:42:57;;;;;;;49.95;36.55;;;15.70;99.90;;;;;;5159174;27;20087;-66
2021/06/05 03:45:22;;;;;;;46.85;35.40;;;15.70;99.90;;;;;;5156367;27;20034;-66
2021/06/05 03:47:49;;;;;;;44.97;34.42;;;15.70;99.90;;;;;;5156322;27;20057;-66
2021/06/05 03:50:20;;;;;;;46.28;34.70;;;15.60;99.90;;;;;;5149485;27;20039;-66
2021/06/05 03:52:46;;;;;;;45.80;34.10;;;15.60;99.90;;;;;;5158812;27;20077;-66
2021/06/05 03:55:13;;;;;;;51.67;37.90;;;15.60;99.90;;;;;;5149325;27;20089;-66
2021/06/05 03:57:39;;;;;;;48.65;35.25;;;15.60;99.90;;;;;;5163997;27;20050;-66
2021/06/05 04:00:16;;;;;;;44.35;33.90;;;15.50;99.90;;;;;;5153566;27;20035;-66
2021/06/05 04:02:42;;;;;;;48.08;34.38;;;15.50;99.90;;;;;;5141536;27;20050;-66
2021/06/05 04:05:09;;;;;;;53.58;36.35;;;15.50;99.90;;;;;;5151300;27;20135;-66
2021/06/05 04:07:35;;;;;;;48.95;35.20;;;15.50;99.90;;;;;;5156763;27;20038;-66
2021/06/05 04:10:08;;;;;;;48.95;34.45;;;15.50;99.90;;;;;;5159508;27;20034;-66
2021/06/05 04:12:35;;;;;;;48.22;33.47;;;15.50;99.90;;;;;;5163051;27;20049;-66
2021/06/05 04:15:01;;;;;;;69.10;38.05;;;15.50;99.90;;;;;;5155250;27;20540;-66
2021/06/05 04:17:27;;;;;;;48.55;33.63;;;15.50;99.90;;;;;;5156766;27;20129;-66
2021/06/05 04:19:53;;;;;;;47.83;33.40;;;15.60;99.90;;;;;;5151502;27;20562;-66
2021/06/05 04:22:19;;;;;;;46.55;30.92;;;15.60;99.90;;;;;;5156714;27;20485;-66
2021/06/05 04:24:45;;;;;;;54.60;35.03;;;15.60;99.90;;;;;;5157151;27;20026;-66
2021/06/05 04:27:10;;;;;;;66.15;34.85;;;15.60;99.90;;;;;;5148479;27;20100;-65
2021/06/05 04:29:37;;;;;;;55.03;32.85;;;15.60;99.90;;;;;;5157992;27;20087;-65
2021/06/05 04:32:05;;;;;;;44.50;30.48;;;15.50;99.90;;;;;;5150424;27;20420;-65
2021/06/05 04:34:35;;;;;;;44.00;29.00;;;15.50;99.90;;;;;;5155057;27;20222;-65
2021/06/05 04:37:02;;;;;;;40.90;26.27;;;15.50;99.90;;;;;;5152747;27;20461;-65
2021/06/05 04:39:28;;;;;;;44.60;27.58;;;15.40;99.90;;;;;;5156275;27;20069;-65
2021/06/05 04:41:54;;;;;;;53.72;30.38;;;15.40;99.90;;;;;;5152044;27;20059;-65
2021/06/05 04:44:20;;;;;;;43.75;28.00;;;15.30;99.90;;;;;;5154450;27;20034;-65
2021/06/05 04:46:46;;;;;;;47.20;28.90;;;15.30;99.90;;;;;;5156213;27;20106;-65
2021/06/05 04:49:13;;;;;;;44.65;27.20;;;15.30;99.90;;;;;;5159727;27;20406;-65
2021/06/05 04:51:40;;;;;;;43.22;26.15;;;15.30;99.90;;;;;;5157086;27;20041;-65
2021/06/05 04:54:06;;;;;;;58.20;27.35;;;15.20;99.90;;;;;;5144912;27;20047;-65
2021/06/05 04:56:40;;;;;;;35.40;20.42;;;15.20;99.90;;;;;;5154704;27;20072;-65
2021/06/05 04:59:07;;;;;;;33.45;19.52;;;15.20;99.90;;;;;;5156810;27;20410;-65
2021/06/05 05:01:33;;;;;;;37.85;17.45;;;15.20;99.90;;;;;;5150532;27;20134;-65
2021/06/05 05:04:00;;;;;;;20.55;11.95;;;15.10;99.90;;;;;;5155814;27;20037;-65
2021/06/05 05:06:26;;;;;;;28.75;14.98;;;15.10;99.90;;;;;;5155426;27;20065;-65
2021/06/05 05:08:52;;;;;;;18.90;11.75;;;15.00;99.90;;;;;;5162136;27;20042;-65
2021/06/05 05:11:18;;;;;;;21.42;13.15;;;14.90;99.90;;;;;;5157036;27;20054;-66
2021/06/05 05:13:43;;;;;;;18.05;12.73;;;14.90;99.90;;;;;;5154853;27;20038;-67
2021/06/05 05:16:10;;;;;;;18.23;12.98;;;14.90;99.90;;;;;;5163173;27;20042;-67
2021/06/05 05:18:38;;;;;;;19.48;12.05;;;14.80;99.90;;;;;;5156534;27;20117;-67
2021/06/05 05:21:06;;;;;;;17.17;12.70;;;14.80;99.90;;;;;;5165943;27;20082;-66
2021/06/05 05:23:33;;;;;;;15.00;10.85;;;14.70;99.90;;;;;;5139542;27;20051;-66
2021/06/05 05:26:03;;;;;;;17.98;11.48;;;14.70;99.90;;;;;;5163832;27;20047;-66
2021/06/05 05:28:30;;;;;;;21.42;12.77;;;14.80;99.90;;;;;;5160523;27;20038;-66
2021/06/05 05:30:58;;;;;;;11.52;9.10;;;14.80;99.90;;;;;;5165904;27;20039;-66
2021/06/05 05:33:25;;;;;;;21.67;10.85;;;14.70;99.90;;;;;;5153861;27;20035;-66
2021/06/05 05:35:52;;;;;;;13.93;9.45;;;14.70;99.90;;;;;;5162904;27;20549;-66
2021/06/05 05:38:19;;;;;;;17.60;9.63;;;14.70;99.90;;;;;;5160465;27;20045;-66
2021/06/05 05:40:46;;;;;;;15.93;9.73;;;14.70;99.90;;;;;;5160225;27;20095;-66
2021/06/05 05:43:13;;;;;;;66.45;53.72;;;14.70;99.90;;;;;;5157342;27;20078;-66
2021/06/05 05:45:39;;;;;;;17.45;9.93;;;14.70;99.90;;;;;;5163789;27;20049;-66
2021/06/05 05:48:07;;;;;;;10.23;6.85;;;14.70;99.90;;;;;;5164758;27;20493;-66
2021/06/05 05:50:36;;;;;;;19.67;8.55;;;14.80;99.90;;;;;;5163335;27;20034;-66
2021/06/05 05:53:03;;;;;;;9.90;7.00;;;14.80;99.90;;;;;;5163509;27;20031;-66
2021/06/05 05:55:29;;;;;;;12.57;6.75;;;14.70;99.90;;;;;;5158280;27;20050;-66
2021/06/05 05:57:55;;;;;;;10.60;6.57;;;14.80;99.90;;;;;;5158488;27;20042;-66
2021/06/05 06:00:28;;;;;;;8.15;5.57;;;14.80;99.90;;;;;;5152691;27;20039;-66
2021/06/05 06:02:54;;;;;;;46.17;41.25;;;14.80;99.90;;;;;;5161238;27;20257;-66
2021/06/05 06:05:20;;;;;;;51.17;45.35;;;14.80;99.90;;;;;;5153944;27;20079;-66
2021/06/05 06:07:46;;;;;;;10.40;6.15;;;14.70;99.90;;;;;;5160659;27;20033;-66
2021/06/05 06:10:14;;;;;;;10.75;6.35;;;14.80;99.90;;;;;;5158542;27;20035;-66
2021/06/05 06:12:40;;;;;;;9.75;6.38;;;14.90;99.90;;;;;;5162971;27;20473;-66
2021/06/05 06:15:10;;;;;;;8.95;5.65;;;14.90;99.90;;;;;;5159623;27;20079;-66
2021/06/05 06:17:36;;;;;;;7.28;4.85;;;15.00;99.90;;;;;;5163778;27;20077;-66
2021/06/05 06:20:05;;;;;;;6.07;4.63;;;14.90;99.90;;;;;;5140127;27;20495;-66
2021/06/05 06:22:31;;;;;;;5.80;4.18;;;15.00;99.90;;;;;;5160271;27;20041;-66
2021/06/05 06:24:56;;;;;;;6.85;3.40;;;15.00;99.90;;;;;;5158129;27;20035;-66
2021/06/05 06:27:22;;;;;;;5.65;3.92;;;15.00;99.90;;;;;;5160622;27;20746;-66
2021/06/05 06:29:48;;;;;;;4.75;3.50;;;15.10;99.90;;;;;;5152225;27;21074;-66
2021/06/05 06:32:14;;;;;;;7.20;4.10;;;15.10;99.90;;;;;;5162278;27;20045;-66
2021/06/05 06:34:40;;;;;;;4.75;3.53;;;15.20;99.90;;;;;;5159901;27;20055;-66
2021/06/05 06:37:07;;;;;;;7.55;4.75;;;15.20;99.90;;;;;;5155970;27;20394;-66
2021/06/05 06:39:33;;;;;;;4.05;3.55;;;15.30;99.90;;;;;;5164485;27;20058;-66
2021/06/05 06:41:59;;;;;;;4.25;3.17;;;15.30;99.90;;;;;;5155377;27;20073;-66
2021/06/05 06:44:27;;;;;;;4.47;3.53;;;15.40;99.90;;;;;;5158999;27;20042;-66
2021/06/05 06:46:53;;;;;;;5.97;4.03;;;15.40;99.90;;;;;;5157240;27;20047;-66
2021/06/05 06:49:21;;;;;;;5.03;3.97;;;15.40;99.90;;;;;;5159637;27;20075;-66
2021/06/05 06:51:48;;;;;;;5.03;4.07;;;15.40;99.90;;;;;;5157706;27;20035;-66
2021/06/05 06:54:14;;;;;;;5.78;4.20;;;15.50;99.90;;;;;;5162442;27;20121;-66
2021/06/05 06:56:41;;;;;;;8.65;6.13;;;15.50;99.90;;;;;;5155070;27;20395;-66
2021/06/05 06:59:08;;;;;;;5.53;4.38;;;15.50;99.90;;;;;;5160445;27;20431;-66
2021/06/05 07:01:34;;;;;;;6.03;5.13;;;15.50;99.90;;;;;;5155179;27;20520;-66
2021/06/05 07:04:00;;;;;;;5.78;5.18;;;15.60;99.90;;;;;;5165572;27;20079;-66
2021/06/05 07:06:26;;;;;;;7.75;6.15;;;15.60;99.90;;;;;;5155588;27;20051;-66
2021/06/05 07:08:53;;;;;;;5.03;4.53;;;15.60;99.90;;;;;;5164680;27;20346;-66
2021/06/05 07:11:28;;;;;;;5.38;4.57;;;15.70;99.90;;;;;;5153357;27;20035;-66
2021/06/05 07:13:53;;;;;;;6.15;4.97;;;15.80;99.90;;;;;;5138371;27;20043;-66
2021/06/05 07:16:19;;;;;;;4.93;4.30;;;15.80;99.90;;;;;;5164614;27;20043;-66
2021/06/05 07:18:47;;;;;;;8.23;5.55;;;15.80;99.90;;;;;;5153742;27;20066;-66
2021/06/05 07:21:13;;;;;;;5.00;4.47;;;15.80;99.90;;;;;;5163518;27;20473;-66
2021/06/05 07:23:41;;;;;;;6.85;5.85;;;15.90;99.90;;;;;;5154987;27;20027;-66
2021/06/05 07:26:10;;;;;;;8.57;6.63;;;15.90;99.90;;;;;;5156239;27;20416;-66
2021/06/05 07:28:43;;;;;;;6.32;5.72;;;15.90;99.90;;;;;;5154127;27;20034;-65
2021/06/05 07:31:13;;;;;;;5.85;5.25;;;15.90;99.90;;;;;;5159180;27;20047;-65
2021/06/05 07:33:43;;;;;;;6.88;6.18;;;16.00;99.90;;;;;;5151886;27;20050;-65
2021/06/05 07:36:13;;;;;;;8.13;7.25;;;16.00;99.90;;;;;;5160041;27;20460;-65
2021/06/05 07:38:39;;;;;;;7.57;6.28;;;16.10;99.90;;;;;;5153622;27;20421;-65
2021/06/05 07:41:05;;;;;;;58.90;53.33;;;16.20;99.90;;;;;;5160101;27;20038;-65
2021/06/05 07:43:32;;;;;;;7.95;7.25;;;16.20;99.90;;;;;;5149798;27;20072;-66
2021/06/05 07:45:59;;;;;;;8.75;7.90;;;16.40;99.90;;;;;;5167585;27;20047;-66
2021/06/05 07:48:26;;;;;;;9.48;8.57;;;16.30;99.90;;;;;;5150464;27;20073;-66
2021/06/05 07:50:52;;;;;;;15.00;11.63;;;16.30;99.90;;;;;;5161210;27;20034;-66
2021/06/05 07:53:18;;;;;;;9.35;8.35;;;16.50;99.90;;;;;;5149889;27;20042;-66
2021/06/05 07:55:44;;;;;;;9.93;9.00;;;16.60;99.90;;;;;;5162324;27;20044;-66
2021/06/05 07:58:11;;;;;;;10.43;9.13;;;16.80;99.90;;;;;;5152256;27;20496;-66
2021/06/05 08:00:38;;;;;;;11.32;10.13;;;17.00;99.90;;;;;;5158871;27;20031;-66
2021/06/05 08:03:04;;;;;;;10.48;9.45;;;17.20;99.90;;;;;;5154214;27;20387;-66
2021/06/05 08:05:30;;;;;;;10.38;9.50;;;17.40;99.90;;;;;;5150753;27;20043;-66
2021/06/05 08:07:57;;;;;;;14.38;13.00;;;17.50;99.90;;;;;;5158921;27;20044;-66
2021/06/05 08:10:24;;;;;;;12.63;11.43;;;17.60;99.90;;;;;;5150482;27;20039;-66
2021/06/05 08:12:51;;;;;;;11.73;10.70;;;17.80;99.90;;;;;;5155280;27;20038;-66
2021/06/05 08:15:24;;;;;;;12.55;11.45;;;18.00;99.90;;;;;;5157727;27;20040;-66
2021/06/05 08:17:51;;;;;;;12.80;11.70;;;18.10;99.90;;;;;;5161576;27;20034;-66
2021/06/05 08:20:23;;;;;;;14.10;12.88;;;18.10;99.90;;;;;;5158707;27;20046;-66
2021/06/05 08:22:49;;;;;;;13.50;12.30;;;18.20;99.90;;;;;;5159745;27;20099;-66
2021/06/05 08:25:16;;;;;;;15.55;14.15;;;18.30;99.90;;;;;;5152836;27;20432;-66
2021/06/05 08:27:43;;;;;;;12.70;11.63;;;18.40;99.90;;;;;;5158049;27;20583;-66
2021/06/05 08:30:15;;;;;;;14.43;13.18;;;18.60;99.90;;;;;;5149815;27;20073;-66
2021/06/05 08:32:41;;;;;;;13.93;12.63;;;18.70;99.90;;;;;;5159578;27;20034;-66
2021/06/05 08:35:07;;;;;;;17.40;15.82;;;18.80;99.90;;;;;;5150199;27;20435;-66
2021/06/05 08:37:35;;;;;;;17.73;16.10;;;19.00;99.90;;;;;;5156969;27;20045;-66
2021/06/05 08:40:05;;;;;;;14.48;13.23;;;19.10;99.90;;;;;;5160190;27;20050;-66
2021/06/05 08:42:48;;;;;;;16.27;14.77;;;19.20;99.90;;;;;;5137304;27;20127;-66
2021/06/05 08:45:18;;;;;;;13.90;12.70;;;19.30;99.90;;;;;;5156072;27;20072;-66
2021/06/05 08:47:44;;;;;;;16.33;14.93;;;19.30;99.90;;;;;;5158197;27;20039;-66
2021/06/05 08:50:17;;;;;;;14.32;13.02;;;19.40;99.90;;;;;;5159793;27;20053;-66
2021/06/05 08:52:54;;;;;;;15.20;13.90;;;19.50;99.90;;;;;;5162827;27;20119;-66
2021/06/05 08:55:41;;;;;;;17.55;16.10;;;19.50;99.90;;;;;;5155591;27;20035;-66
2021/06/05 08:58:30;;;;;;;14.65;13.43;;;19.50;99.90;;;;;;5163342;27;20041;-66
2021/06/05 09:01:14;;;;;;;17.60;15.90;;;19.70;99.90;;;;;;5162814;27;20443;-66
2021/06/05 09:03:41;;;;;;;15.43;14.13;;;19.80;99.90;;;;;;5163237;27;20068;-66
2021/06/05 09:06:17;;;;;;;17.00;15.52;;;19.90;99.90;;;;;;5160038;27;20079;-66
2021/06/05 09:08:43;;;;;;;15.63;14.40;;;19.80;99.90;;;;;;5163794;27;20039;-66
2021/06/05 09:11:11;;;;;;;18.27;16.77;;;19.80;99.90;;;;;;5153934;27;20099;-66
2021/06/05 09:13:37;;;;;;;17.90;16.23;;;19.80;99.90;;;;;;5162962;27;20030;-66
2021/06/05 09:16:21;;;;;;;18.05;16.38;;;19.80;99.90;;;;;;5162829;27;20107;-66
2021/06/05 09:18:53;;;;;;;18.33;16.73;;;19.80;99.80;;;;;;5163852;27;20443;-66
2021/06/05 09:21:31;;;;;;;20.63;18.92;;;19.80;99.90;;;;;;5153749;27;20030;-66
2021/06/05 09:24:09;;;;;;;18.67;17.08;;;19.90;99.90;;;;;;5162675;27;20033;-66
2021/06/05 09:26:35;;;;;;;17.10;15.70;;;20.10;99.90;;;;;;5155218;27;20488;-66
2021/06/05 09:29:08;;;;;;;17.00;15.60;;;20.10;99.70;;;;;;5167326;27;20050;-66
2021/06/05 09:31:55;;;;;;;16.52;15.00;;;20.20;99.60;;;;;;5163888;27;20069;-66
2021/06/05 09:34:27;;;;;;;14.95;13.70;;;20.20;99.50;;;;;;5167317;27;20089;-66
2021/06/05 09:36:52;;;;;;;15.65;14.35;;;20.20;99.30;;;;;;5165406;27;20043;-66
2021/06/05 09:39:36;;;;;;;15.98;14.57;;;20.20;99.20;;;;;;5148478;27;20043;-66
2021/06/05 09:42:03;;;;;;;15.35;13.98;;;20.20;99.10;;;;;;5165969;27;20050;-66
2021/06/05 09:44:40;;;;;;;14.82;13.52;;;20.10;99.30;;;;;;5153018;27;20039;-66
2021/06/05 09:47:22;;;;;;;17.70;16.27;;;20.00;99.00;;;;;;5165349;27;20043;-66
2021/06/05 09:49:55;;;;;;;16.27;14.88;;;19.90;99.10;;;;;;5159211;27;20038;-66
2021/06/05 09:52:24;;;;;;;16.88;15.45;;;19.80;99.20;;;;;;5163732;27;20047;-66
2021/06/05 09:54:53;;;;;;;18.13;16.63;;;19.80;99.00;;;;;;5159067;27;20042;-66
2021/06/05 09:57:25;;;;;;;18.48;16.92;;;19.70;99.30;;;;;;5165803;27;20049;-66
2021/06/05 10:00:09;;;;;;;19.52;17.67;;;19.70;99.20;;;;;;5158353;27;20041;-66
2021/06/05 10:02:37;;;;;;;17.20;15.75;;;19.70;99.30;;;;;;5164472;27;20035;-66
2021/06/05 10:05:30;;;;;;;20.50;18.80;;;19.60;99.30;;;;;;5157216;27;20426;-66
2021/06/05 10:07:58;;;;;;;18.83;17.25;;;19.60;99.40;;;;;;5163039;27;20035;-66
2021/06/05 10:10:45;;;;;;;19.70;18.10;;;19.50;99.60;;;;;;5157379;27;20664;-66
2021/06/05 10:13:15;;;;;;;19.42;17.83;;;19.60;99.40;;;;;;5146395;27;20446;-66
2021/06/05 10:15:57;;;;;;;20.63;18.92;;;19.50;99.40;;;;;;5158430;27;20073;-66
2021/06/05 10:18:31;;;;;;;20.98;19.17;;;19.50;99.40;;;;;;5160527;27;20037;-66
2021/06/05 10:21:00;;;;;;;;;;;19.50;99.90;;;;;;5156891;27;20081;-66
2021/06/05 10:23:39;;;;;;;21.95;20.10;;;19.40;99.20;;;;;;5158191;27;20392;-66
2021/06/05 10:26:24;;;;;;;22.58;20.73;;;19.40;99.80;;;;;;5160185;27;20042;-66
2021/06/05 10:29:03;;;;;;;23.08;21.08;;;19.40;99.80;;;;;;5158926;27;20046;-66
2021/06/05 10:31:32;;;;;;;25.05;23.00;;;19.40;99.90;;;;;;5164355;27;20481;-66
2021/06/05 10:34:08;;;;;;;26.65;24.23;;;19.40;99.80;;;;;;5164347;27;20064;-66
2021/06/05 10:36:42;;;;;;;28.80;26.40;;;19.40;99.80;;;;;;5165043;27;20034;-66
2021/06/05 10:39:13;;;;;;;26.40;24.15;;;19.30;99.90;;;;;;5164571;27;20069;-66
2021/06/05 10:41:49;;;;;;;29.42;26.92;;;19.30;99.90;;;;;;5157515;27;20094;-66
2021/06/05 10:44:15;;;;;;;30.00;27.50;;;19.30;99.90;;;;;;5164357;27;20501;-66
2021/06/05 10:47:00;;;;;;;29.98;27.38;;;19.20;99.90;;;;;;5161236;27;20050;-66
2021/06/05 10:49:32;;;;;;;29.40;27.00;;;19.20;99.90;;;;;;5162556;27;20042;-66
2021/06/05 10:52:24;;;;;;;31.40;28.67;;;19.10;99.80;;;;;;5153951;27;20485;-66
2021/06/05 10:54:53;;;;;;;30.27;27.67;;;19.10;99.90;;;;;;5159717;27;20037;-66
2021/06/05 10:57:18;;;;;;;26.83;24.65;;;19.00;99.90;;;;;;5166402;27;20383;-66
2021/06/05 10:59:54;;;;;;;27.67;25.42;;;19.00;99.90;;;;;;5155893;27;20068;-66
2021/06/05 11:02:43;;;;;;;27.60;25.30;;;18.90;99.90;;;;;;5151676;27;20050;-67
2021/06/05 11:05:23;;;;;;;31.15;28.55;;;19.00;99.90;;;;;;5154907;27;20493;-67
2021/06/05 11:08:13;;;;;;;31.95;29.10;;;19.00;99.90;;;;;;5155873;27;20038;-67
2021/06/05 11:10:55;;;;;;;29.20;26.70;;;19.00;99.90;;;;;;5149464;27;20101;-67
2021/06/05 11:13:47;;;;;;;29.30;26.90;;;19.10;99.90;;;;;;5155921;27;20437;-67
2021/06/05 11:16:21;;;;;;;32.15;29.45;;;19.10;99.90;;;;;;5151999;27;20494;-67
2021/06/05 11:18:53;;;;;;;30.15;27.75;;;19.10;99.90;;;;;;5159290;27;20114;-67
2021/06/05 11:21:26;;;;;;;26.08;23.88;;;19.10;99.90;;;;;;5151271;27;20026;-67
2021/06/05 11:23:58;;;;;;;22.13;20.13;;;19.20;99.90;;;;;;5148797;27;20082;-67
2021/06/05 11:29:20;;;;;;;18.75;17.05;;;19.30;99.90;;;;;;5157937;27;20537;-68
2021/06/05 11:31:46;;;;;;;19.95;18.15;;;19.30;99.90;;;;;;5151245;27;20103;-68
2021/06/05 11:34:43;;;;;;;19.88;18.20;;;19.20;99.90;;;;;;5170338;27;20042;-68
2021/06/05 11:37:15;;;;;;;20.27;18.50;;;19.20;99.90;;;;;;5107839;27;20062;-68
2021/06/05 11:39:56;;;;;;;20.20;18.50;;;19.20;99.90;;;;;;5159375;27;20035;-68
2021/06/05 11:42:22;;;;;;;21.40;19.33;;;19.20;99.90;;;;;;5153360;27;20043;-68
2021/06/05 11:44:58;;;;;;;21.75;19.63;;;19.20;99.90;;;;;;5163589;27;20042;-68
2021/06/05 11:47:24;;;;;;;20.80;19.00;;;19.20;99.90;;;;;;5148979;27;20379;-68
2021/06/05 11:49:51;;;;;;;20.88;19.13;;;19.20;99.90;;;;;;5159017;27;20099;-68
2021/06/05 11:52:26;;;;;;;23.52;21.25;;;19.20;99.90;;;;;;5154792;27;20060;-68
2021/06/05 11:55:02;;;;;;;24.55;22.23;;;19.10;99.90;;;;;;5148116;27;20382;-68
2021/06/05 11:57:38;;;;;;;25.13;22.83;;;19.10;99.90;;;;;;5149599;27;20049;-68
2021/06/05 12:00:08;;;;;;;26.80;24.20;;;19.10;99.90;;;;;;5149742;27;20070;-68
2021/06/05 12:02:42;;;;;;;26.80;24.23;;;19.00;99.90;;;;;;5162019;27;20400;-68
2021/06/05 12:05:33;;;;;;;27.23;24.57;;;18.90;99.90;;;;;;5159349;27;20040;-68
2021/06/05 12:07:59;;;;;;;25.25;22.80;;;18.90;99.90;;;;;;5157652;27;20031;-68
2021/06/05 12:10:34;;;;;;;27.27;24.73;;;18.80;99.90;;;;;;5163071;27;20038;-68
2021/06/05 12:13:01;;;;;;;27.13;24.63;;;18.80;99.90;;;;;;5150417;27;20121;-68
2021/06/05 12:15:40;;;;;;;27.77;24.98;;;18.80;99.90;;;;;;5141894;27;20433;-68
2021/06/05 12:18:07;;;;;;;26.63;24.02;;;18.80;99.90;;;;;;5166085;27;20037;-68
2021/06/05 12:20:48;;;;;;;25.75;23.13;;;18.80;99.90;;;;;;5158628;27;20474;-68
2021/06/05 12:23:35;;;;;;;26.25;23.77;;;18.80;99.90;;;;;;5147206;27;20047;-68
2021/06/05 12:26:07;;;;;;;22.88;20.65;;;18.80;99.90;;;;;;5164659;27;20031;-68
2021/06/05 12:28:36;;;;;;;20.30;18.08;;;18.80;99.90;;;;;;5156047;27;20030;-68
2021/06/05 12:31:20;;;;;;;18.42;16.55;;;18.90;99.90;;;;;;5147680;27;20046;-68
2021/06/05 12:34:06;;;;;;;15.63;14.23;;;19.00;99.90;;;;;;5156845;27;20541;-68
2021/06/05 12:36:39;;;;;;;16.48;15.07;;;19.10;99.90;;;;;;5162497;27;20067;-68
2021/06/05 12:39:20;;;;;;;15.88;14.48;;;19.20;99.90;;;;;;5157864;27;20095;-68
2021/06/05 12:41:49;;;;;;;16.95;15.32;;;19.40;99.90;;;;;;5161399;27;20117;-68
2021/06/05 12:44:25;;;;;;;17.70;16.13;;;19.40;99.90;;;;;;5155937;27;20042;-68
2021/06/05 12:46:52;;;;;;;16.08;14.57;;;19.50;99.90;;;;;;5162151;27;20135;-68
2021/06/05 12:49:25;;;;;;;17.65;16.08;;;19.50;99.60;;;;;;5158899;27;20045;-68